Springfield, Minnesota
Current Conditions -  °F | °C
As of 9:53 AM on Thursday 30 Oct 2014 (Local Time) from KRWF Reporting Station
Overcast Overcast  
Wind Chill: 38°   Ceiling: 8000
Heat Index: 42°   Visibility: 10mi
Dew Point: 38°   Wind: 6mph
Humidity: 85%   Direction: 340°NNW
Pressure: 30.06"   Gusts: NA
Location:  44.24°N, 94.98°W
Report Text: KRWF 301453Z AUTO 34005KT 10SM OVC080 06/03 A3006 RMK AO2 SLP186 T00560033 53018
Loading
Personal Weather Stations






























Interactive Weather Map
Tropical Storm Tracking
New forecast layout! Learn more

10-Day Weather Forecast

Advertisements
Track Severe Weather on mobile